createdAt,value
2023-05-25T00:01:01.968Z,9.04
2023-05-25T00:01:51.024Z,9.04
2023-05-25T00:02:52.543Z,9.00
2023-05-25T00:03:53.830Z,9.04
2023-05-25T00:04:51.068Z,9.04
2023-05-25T00:05:51.284Z,8.97
2023-05-25T00:06:51.118Z,9.00
2023-05-25T00:07:51.148Z,8.98
2023-05-25T00:08:51.709Z,8.97
2023-05-25T00:09:51.802Z,8.97
2023-05-25T00:10:51.217Z,9.03
2023-05-25T00:12:51.474Z,8.90
2023-05-25T00:13:51.307Z,8.95
2023-05-25T00:14:51.335Z,8.95
2023-05-25T00:15:51.343Z,8.98
2023-05-25T00:16:51.448Z,8.97
2023-05-25T00:17:51.706Z,8.98
2023-05-25T00:18:51.406Z,8.92
2023-05-25T00:19:51.538Z,8.86
2023-05-25T00:20:51.458Z,8.87
2023-05-25T00:21:51.484Z,8.76
2023-05-25T00:22:51.515Z,8.83
2023-05-25T00:23:51.535Z,8.87
2023-05-25T00:24:51.560Z,8.90
2023-05-25T00:25:51.589Z,8.82
2023-05-25T00:26:51.627Z,8.82
2023-05-25T00:27:51.636Z,8.76
2023-05-25T00:28:51.672Z,8.87
2023-05-25T00:29:51.692Z,8.87
2023-05-25T00:30:51.778Z,8.92
2023-05-25T00:31:51.736Z,8.92
2023-05-25T00:32:51.788Z,8.86
2023-05-25T00:33:51.790Z,8.76
2023-05-25T00:34:51.820Z,8.77
2023-05-25T00:35:51.866Z,8.85
2023-05-25T00:36:51.867Z,8.82
2023-05-25T00:37:51.909Z,8.77
2023-05-25T00:38:51.927Z,8.76
2023-05-25T00:39:51.943Z,8.85
2023-05-25T00:40:51.980Z,8.85
2023-05-25T00:41:51.993Z,8.79
2023-05-25T00:42:52.024Z,8.77
2023-05-25T00:43:52.062Z,8.72
2023-05-25T00:44:52.072Z,8.74
2023-05-25T00:45:52.093Z,8.82
2023-05-25T00:46:52.431Z,8.79
2023-05-25T00:47:52.215Z,8.77
2023-05-25T00:48:52.172Z,8.69
2023-05-25T00:49:52.200Z,8.69
2023-05-25T00:50:54.896Z,8.71
2023-05-25T00:51:52.247Z,8.80
2023-05-25T00:52:52.282Z,8.68
2023-05-25T00:53:52.321Z,8.71
2023-05-25T00:54:52.334Z,8.76
2023-05-25T00:55:52.356Z,8.68
2023-05-25T00:56:52.374Z,8.67
2023-05-25T00:57:52.393Z,8.60
2023-05-25T00:58:52.420Z,8.68
2023-05-25T00:59:52.442Z,8.72
2023-05-25T01:00:52.470Z,8.64
2023-05-25T01:01:52.560Z,8.69
2023-05-25T01:02:52.581Z,8.68
2023-05-25T01:03:52.548Z,8.64
2023-05-25T01:04:52.568Z,8.67
2023-05-25T01:05:52.613Z,8.65
2023-05-25T01:06:52.645Z,8.62
2023-05-25T01:07:52.646Z,8.47
2023-05-25T01:08:52.689Z,8.52
2023-05-25T01:09:52.694Z,8.54
2023-05-25T01:10:52.745Z,8.49
2023-05-25T01:11:52.762Z,8.53
2023-05-25T01:12:52.781Z,8.46
2023-05-25T01:13:52.794Z,8.52
2023-05-25T01:14:52.821Z,8.52
2023-05-25T01:15:52.868Z,8.52
2023-05-25T01:16:52.919Z,8.50
2023-05-25T01:17:52.928Z,8.46
2023-05-25T01:18:53.023Z,8.42
2023-05-25T01:20:08.980Z,8.49
2023-05-25T01:20:53.007Z,8.36
2023-05-25T01:21:52.992Z,8.35
2023-05-25T01:22:53.045Z,8.34
2023-05-25T01:23:53.046Z,8.34
2023-05-25T01:24:53.088Z,8.36
2023-05-25T01:25:53.936Z,8.31
2023-05-25T01:26:53.121Z,8.32
2023-05-25T01:27:53.145Z,8.31
2023-05-25T01:28:53.174Z,8.32
2023-05-25T01:29:53.199Z,8.34
2023-05-25T01:30:53.220Z,8.34
2023-05-25T01:31:53.329Z,8.32
2023-05-25T01:32:53.303Z,8.36
2023-05-25T01:33:53.296Z,8.36
2023-05-25T01:34:53.333Z,8.36
2023-05-25T01:35:53.348Z,8.42
2023-05-25T01:36:53.391Z,8.34
2023-05-25T01:37:53.444Z,8.40
2023-05-25T01:38:53.442Z,8.35
2023-05-25T01:39:53.440Z,8.32
2023-05-25T01:40:53.471Z,8.28
2023-05-25T01:41:53.501Z,8.28
2023-05-25T01:42:53.525Z,8.35
2023-05-25T01:43:53.544Z,8.39
2023-05-25T01:44:53.568Z,8.35
2023-05-25T01:45:53.636Z,8.32
2023-05-25T01:46:53.623Z,8.36
2023-05-25T01:47:53.697Z,8.28
2023-05-25T01:48:53.678Z,8.34
2023-05-25T01:49:53.697Z,8.28
2023-05-25T01:50:53.717Z,8.25
2023-05-25T01:51:53.823Z,8.29
2023-05-25T01:52:53.776Z,8.28
2023-05-25T01:53:53.798Z,8.28
2023-05-25T01:54:53.849Z,8.26
2023-05-25T01:55:53.849Z,8.24
2023-05-25T01:56:53.870Z,8.25
2023-05-25T01:57:53.890Z,8.21
2023-05-25T01:58:53.923Z,8.14
2023-05-25T01:59:53.939Z,8.21
2023-05-25T02:00:53.971Z,8.03
2023-05-25T02:01:54.047Z,8.07
2023-05-25T02:02:54.063Z,8.06
2023-05-25T02:03:54.049Z,8.04
2023-05-25T02:04:54.079Z,7.99
2023-05-25T02:05:54.099Z,7.98
2023-05-25T02:06:54.127Z,7.98
2023-05-25T02:07:54.140Z,8.04
2023-05-25T02:08:54.168Z,7.98
2023-05-25T02:09:54.195Z,7.88
2023-05-25T02:10:54.368Z,7.95
2023-05-25T02:11:54.250Z,7.88
2023-05-25T02:13:51.845Z,7.96
2023-05-25T02:14:51.871Z,7.93
2023-05-25T02:15:51.939Z,7.85
2023-05-25T02:16:51.932Z,7.88
2023-05-25T02:17:52.009Z,7.96
2023-05-25T02:18:52.005Z,7.82
2023-05-25T02:19:52.013Z,7.86
2023-05-25T02:20:52.073Z,7.85
2023-05-25T02:21:52.066Z,7.86
2023-05-25T02:22:52.076Z,7.86
2023-05-25T02:23:52.104Z,7.88
2023-05-25T02:24:52.119Z,7.86
2023-05-25T02:25:52.145Z,7.75
2023-05-25T02:26:52.196Z,7.80
2023-05-25T02:28:39.751Z,7.80
2023-05-25T02:29:39.779Z,7.77
2023-05-25T02:30:39.802Z,7.77
2023-05-25T02:31:39.917Z,7.77
2023-05-25T02:32:39.888Z,7.77
2023-05-25T02:33:39.878Z,7.75
2023-05-25T02:34:39.910Z,7.80
2023-05-25T02:35:39.929Z,7.77
2023-05-25T02:36:39.959Z,7.75
2023-05-25T02:37:39.976Z,7.83
2023-05-25T02:38:39.999Z,7.75
2023-05-25T02:39:40.027Z,7.78
2023-05-25T02:40:40.053Z,7.75
2023-05-25T02:42:40.129Z,7.78
2023-05-25T02:43:40.127Z,7.74
2023-05-25T02:44:40.151Z,7.77
2023-05-25T02:45:40.170Z,7.74
2023-05-25T02:46:40.269Z,7.63
2023-05-25T02:47:40.244Z,7.73
2023-05-25T02:48:40.248Z,7.63
2023-05-25T02:49:40.282Z,7.73
2023-05-25T02:50:40.295Z,7.70
2023-05-25T02:51:40.316Z,7.67
2023-05-25T02:52:40.345Z,7.75
2023-05-25T02:53:40.369Z,7.70
2023-05-25T02:54:40.399Z,7.75
2023-05-25T02:55:40.500Z,7.68
2023-05-25T02:56:40.450Z,7.63
2023-05-25T02:57:40.466Z,7.67
2023-05-25T02:58:41.927Z,7.64
2023-05-25T02:59:40.514Z,7.71
2023-05-25T03:00:40.569Z,7.68
2023-05-25T03:01:40.585Z,7.68
2023-05-25T03:02:40.622Z,7.70
2023-05-25T03:03:40.671Z,7.73
2023-05-25T03:04:40.641Z,7.73
2023-05-25T03:05:40.685Z,7.63
2023-05-25T03:06:40.694Z,7.64
2023-05-25T03:07:40.714Z,7.61
2023-05-25T03:08:40.741Z,7.63
2023-05-25T03:09:40.773Z,7.71
2023-05-25T03:10:43.423Z,7.61
2023-05-25T03:11:40.806Z,7.64
2023-05-25T03:12:40.851Z,7.49
2023-05-25T03:13:40.864Z,7.55
2023-05-25T03:14:40.969Z,7.63
2023-05-25T03:15:40.943Z,7.68
2023-05-25T03:19:41.003Z,7.61
2023-05-25T03:20:41.084Z,7.63
2023-05-25T03:21:41.058Z,7.68
2023-05-25T03:22:41.076Z,7.61
2023-05-25T03:23:41.104Z,7.55
2023-05-25T03:24:41.127Z,7.55
2023-05-25T03:25:41.152Z,7.56
2023-05-25T03:26:41.185Z,7.54
2023-05-25T03:27:41.207Z,7.54
2023-05-25T03:28:41.232Z,7.58
2023-05-25T03:29:41.259Z,7.58
2023-05-25T03:30:41.297Z,7.49
2023-05-25T03:31:41.351Z,7.49
2023-05-25T03:32:41.343Z,7.37
2023-05-25T03:33:41.352Z,7.52
2023-05-25T03:34:41.377Z,7.54
2023-05-25T03:35:41.467Z,7.44
2023-05-25T03:36:41.424Z,7.34
2023-05-25T03:37:41.458Z,7.47
2023-05-25T03:38:41.465Z,7.48
2023-05-25T03:39:41.498Z,7.45
2023-05-25T03:40:41.529Z,7.48
2023-05-25T03:42:41.583Z,7.48
2023-05-25T03:43:41.594Z,7.51
2023-05-25T03:44:41.610Z,7.49
2023-05-25T03:45:41.667Z,7.52
2023-05-25T03:46:41.747Z,7.49
2023-05-25T03:47:41.762Z,7.49
2023-05-25T03:48:41.721Z,7.55
2023-05-25T03:49:41.735Z,7.54
2023-05-25T03:50:41.762Z,7.63
2023-05-25T03:51:41.790Z,7.54
2023-05-25T03:52:41.819Z,7.59
2023-05-25T03:53:41.840Z,7.68
2023-05-25T03:54:41.858Z,7.67
2023-05-25T03:55:42.055Z,7.68
2023-05-25T03:56:44.548Z,7.61
2023-05-25T03:57:41.942Z,7.67
2023-05-25T03:58:41.952Z,7.73
2023-05-25T04:01:29.778Z,7.64
2023-05-25T04:03:20.333Z,7.78
2023-05-25T04:04:17.269Z,7.73
2023-05-25T04:05:17.184Z,7.70
2023-05-25T04:06:17.204Z,7.71
2023-05-25T04:07:17.228Z,7.78
2023-05-25T04:08:17.257Z,7.78
2023-05-25T04:09:17.277Z,7.78
2023-05-25T04:10:17.302Z,7.83
2023-05-25T04:11:17.324Z,7.88
2023-05-25T04:12:17.352Z,7.86
2023-05-25T04:13:17.374Z,7.95
2023-05-25T04:14:17.413Z,8.01
2023-05-25T04:15:17.424Z,8.06
2023-05-25T04:16:17.490Z,8.03
2023-05-25T04:17:17.537Z,8.01
2023-05-25T04:18:17.501Z,8.03
2023-05-25T04:19:17.545Z,8.04
2023-05-25T04:20:17.565Z,7.96
2023-05-25T04:21:17.572Z,8.03
2023-05-25T04:22:17.600Z,7.99
2023-05-25T04:23:17.621Z,8.03
2023-05-25T04:24:17.646Z,8.14
2023-05-25T04:25:17.670Z,8.16
2023-05-25T04:26:17.697Z,8.17
2023-05-25T04:27:17.725Z,8.25
2023-05-25T04:28:17.759Z,8.26
2023-05-25T04:29:17.771Z,8.22
2023-05-25T04:30:17.796Z,8.26
2023-05-25T04:31:18.018Z,8.32
2023-05-25T04:32:17.872Z,8.36
2023-05-25T04:34:05.427Z,8.46
2023-05-25T04:35:05.477Z,8.50
2023-05-25T04:36:05.474Z,8.61
2023-05-25T04:37:05.764Z,8.62
2023-05-25T04:38:05.530Z,8.69
2023-05-25T04:39:05.560Z,8.76
2023-05-25T04:41:03.163Z,8.87
2023-05-25T04:52:19.963Z,9.26
2023-05-25T04:53:19.950Z,9.29
2023-05-25T04:54:19.990Z,9.34
2023-05-25T04:55:19.996Z,9.32
2023-05-25T04:56:20.020Z,9.44
2023-05-25T04:57:20.049Z,9.48
2023-05-25T04:58:20.070Z,9.62
2023-05-25T04:59:20.097Z,9.66
2023-05-25T05:00:20.121Z,9.70
2023-05-25T05:01:20.177Z,9.75
2023-05-25T05:02:20.189Z,9.71
2023-05-25T05:03:20.341Z,9.78
2023-05-25T05:04:20.225Z,9.82
2023-05-25T05:05:20.250Z,9.84
2023-05-25T05:06:20.279Z,9.92
2023-05-25T05:07:20.312Z,9.98
2023-05-25T05:08:20.347Z,10.11
2023-05-25T05:09:20.354Z,10.13
2023-05-25T05:10:20.381Z,10.21
2023-05-25T05:11:20.404Z,10.25
2023-05-25T05:12:20.449Z,10.36
2023-05-25T05:13:20.463Z,10.42
2023-05-25T05:14:20.513Z,10.55
2023-05-25T05:15:20.522Z,10.63
2023-05-25T05:16:20.559Z,10.66
2023-05-25T05:17:20.579Z,10.83
2023-05-25T05:18:20.589Z,10.91
2023-05-25T05:19:20.618Z,10.91
2023-05-25T05:20:20.711Z,11.03
2023-05-25T05:21:22.822Z,11.03
2023-05-25T05:22:20.685Z,11.05
2023-05-25T05:23:20.722Z,11.20
2023-05-25T05:24:20.793Z,11.23
2023-05-25T05:25:20.999Z,11.24
2023-05-25T05:26:21.015Z,11.39
2023-05-25T05:27:20.818Z,11.39
2023-05-25T05:28:20.847Z,11.43
2023-05-25T05:30:20.900Z,11.63
2023-05-25T05:31:21.008Z,11.75
2023-05-25T05:33:13.818Z,11.88
2023-05-25T05:35:13.586Z,12.43
2023-05-25T05:36:13.611Z,12.78
2023-05-25T05:37:13.633Z,12.99
2023-05-25T05:38:13.664Z,13.17
2023-05-25T05:39:14.090Z,13.13
2023-05-25T05:40:13.733Z,13.14
2023-05-25T05:42:13.769Z,13.11
2023-05-25T05:43:13.795Z,13.17
2023-05-25T05:44:13.824Z,13.28
2023-05-25T05:46:16.465Z,14.09
2023-05-25T05:47:16.475Z,14.75
2023-05-25T05:48:19.120Z,14.95
2023-05-25T05:49:16.550Z,15.08
2023-05-25T05:50:16.551Z,15.49
2023-05-25T05:51:16.586Z,15.86
2023-05-25T05:52:16.613Z,16.40
2023-05-25T05:53:20.677Z,16.97
2023-05-25T05:54:16.663Z,17.35
2023-05-25T05:55:59.297Z,18.03
2023-05-25T05:57:00.490Z,18.32
2023-05-25T05:57:59.301Z,18.53
2023-05-25T05:58:59.334Z,18.68
2023-05-25T05:59:59.362Z,18.78
2023-05-25T06:01:00.805Z,19.09
2023-05-25T06:01:59.465Z,19.31
2023-05-25T06:02:59.530Z,19.43
2023-05-25T06:03:59.477Z,19.74
2023-05-25T06:05:03.638Z,19.72
2023-05-25T06:05:59.576Z,19.85
2023-05-25T06:06:59.589Z,20.07
2023-05-25T06:09:38.366Z,20.35
2023-05-25T06:10:34.778Z,20.25
2023-05-25T06:12:34.874Z,20.05
2023-05-25T06:13:34.860Z,19.67
2023-05-25T06:14:34.897Z,19.64
2023-05-25T06:15:37.546Z,19.95
2023-05-25T06:16:35.054Z,20.18
2023-05-25T06:19:35.063Z,20.64
2023-05-25T06:20:35.154Z,20.56
2023-05-25T06:21:35.123Z,20.58
2023-05-25T06:22:38.995Z,20.63
2023-05-25T06:23:35.206Z,20.78
2023-05-25T06:24:35.445Z,20.79
2023-05-25T06:36:37.869Z,22.26
2023-05-25T06:37:37.907Z,22.08
2023-05-25T06:38:37.930Z,21.97
2023-05-25T06:39:37.958Z,22.07
2023-05-25T06:45:19.026Z,21.83
2023-05-25T06:46:20.091Z,22.12
2023-05-25T06:47:19.598Z,22.24
2023-05-25T06:48:19.112Z,22.30
2023-05-25T06:49:19.164Z,22.34
2023-05-25T06:51:19.234Z,22.36
2023-05-25T06:53:06.863Z,22.46
2023-05-25T06:56:02.132Z,23.19
2023-05-25T06:56:59.535Z,23.41
2023-05-25T07:00:26.009Z,23.44
2023-05-25T07:01:25.945Z,23.63
2023-05-25T07:02:25.951Z,23.75
2023-05-25T07:03:27.125Z,23.28
2023-05-25T07:04:25.950Z,23.59
2023-05-25T07:07:08.787Z,23.72
2023-05-25T07:08:08.642Z,23.71
2023-05-25T07:09:08.661Z,23.29
2023-05-25T07:10:09.727Z,23.22
2023-05-25T07:11:08.745Z,23.45
2023-05-25T07:12:08.779Z,23.06
2023-05-25T07:14:09.262Z,22.89
2023-05-25T07:20:02.639Z,23.35
2023-05-25T07:20:59.229Z,23.57
2023-05-25T07:21:59.269Z,23.47
2023-05-25T07:23:59.364Z,23.48
2023-05-25T07:24:59.377Z,23.75
2023-05-25T07:31:01.150Z,24.34
2023-05-25T07:32:00.865Z,24.30
2023-05-25T07:32:59.717Z,24.08
2023-05-25T07:43:24.256Z,23.24
2023-05-25T07:44:24.275Z,22.91
2023-05-25T07:45:24.314Z,22.88
2023-05-25T07:53:38.748Z,24.36
2023-05-25T07:55:38.829Z,24.69
2023-05-25T07:56:38.878Z,24.55
2023-05-25T07:57:38.906Z,24.80
2023-05-25T07:58:38.965Z,24.78
2023-05-25T07:59:38.983Z,24.15
2023-05-25T08:00:39.026Z,24.24
2023-05-25T08:01:39.161Z,24.33
2023-05-25T08:02:39.147Z,24.51
2023-05-25T08:07:16.560Z,25.29
2023-05-25T08:08:16.599Z,25.29
2023-05-25T08:09:16.638Z,25.27
2023-05-25T08:10:16.690Z,25.51
2023-05-25T08:11:16.720Z,25.48
2023-05-25T08:12:34.199Z,25.59
2023-05-25T08:13:16.798Z,25.39
2023-05-25T08:14:16.872Z,24.64
2023-05-25T08:15:16.898Z,24.21
2023-05-25T08:16:18.884Z,24.36
2023-05-25T08:17:17.008Z,24.58
2023-05-25T08:18:17.002Z,24.00
2023-05-25T08:19:17.043Z,22.69
2023-05-25T08:20:17.153Z,22.14
2023-05-25T08:21:17.121Z,20.98
2023-05-25T08:22:17.162Z,20.40
2023-05-25T08:23:17.187Z,20.41
2023-05-25T08:24:17.227Z,20.56
2023-05-25T08:25:17.266Z,21.66
2023-05-25T08:26:34.225Z,22.22
2023-05-25T08:30:17.489Z,21.40
2023-05-25T08:31:18.974Z,21.64
2023-05-25T08:32:17.523Z,21.22
2023-05-25T08:33:17.572Z,21.00
2023-05-25T08:35:17.655Z,20.27
2023-05-25T08:36:17.670Z,20.20
2023-05-25T08:37:21.535Z,20.18
2023-05-25T08:38:17.738Z,21.04
2023-05-25T08:39:17.774Z,21.80
2023-05-25T08:41:21.285Z,23.45
2023-05-25T08:42:17.879Z,24.18
2023-05-25T08:43:19.178Z,24.24
2023-05-25T08:45:33.666Z,23.52
2023-05-25T08:58:18.923Z,23.50
2023-05-25T08:59:21.112Z,23.75
2023-05-25T09:00:18.607Z,23.42
2023-05-25T09:01:18.576Z,23.21
2023-05-25T09:02:18.635Z,22.49
2023-05-25T09:03:18.767Z,23.12
2023-05-25T09:04:18.703Z,23.45
2023-05-25T09:05:18.708Z,23.42
2023-05-25T09:06:18.752Z,24.04
2023-05-25T09:07:18.782Z,23.96
2023-05-25T09:08:18.811Z,23.35
2023-05-25T09:09:18.855Z,23.14
2023-05-25T09:10:19.304Z,22.81
2023-05-25T09:11:32.036Z,22.39
2023-05-25T09:12:19.172Z,23.40
2023-05-25T09:13:22.534Z,23.89
2023-05-25T09:14:19.079Z,24.42
2023-05-25T09:15:19.086Z,24.87
2023-05-25T09:16:19.344Z,24.29
2023-05-25T09:17:19.457Z,24.04
2023-05-25T09:18:19.252Z,24.36
2023-05-25T09:19:19.232Z,24.71
2023-05-25T09:20:19.397Z,24.33
2023-05-25T09:22:19.540Z,23.59
2023-05-25T09:23:19.382Z,24.08
2023-05-25T09:24:19.396Z,24.86
2023-05-25T09:25:19.649Z,25.07
2023-05-25T09:26:19.483Z,24.75
2023-05-25T09:27:19.507Z,24.48
2023-05-25T09:28:26.806Z,24.89
2023-05-25T09:29:19.808Z,23.96
2023-05-25T09:30:19.857Z,23.41
2023-05-25T09:33:19.985Z,23.25
2023-05-25T09:34:20.078Z,23.77
2023-05-25T09:35:19.816Z,23.96
2023-05-25T09:36:21.105Z,23.62
2023-05-25T09:37:21.705Z,23.62
2023-05-25T09:38:20.802Z,23.72
2023-05-25T09:39:20.072Z,24.39
2023-05-25T09:40:19.973Z,25.00
2023-05-25T09:42:20.461Z,24.26
2023-05-25T09:43:36.559Z,23.78
2023-05-25T09:44:20.129Z,23.42
2023-05-25T09:45:20.176Z,23.15
2023-05-25T09:46:20.261Z,23.16
2023-05-25T09:47:20.434Z,23.52
2023-05-25T09:49:20.305Z,23.24
2023-05-25T09:50:20.348Z,23.75
2023-05-25T09:51:20.361Z,23.93
2023-05-25T09:52:20.409Z,24.36
2023-05-25T10:13:21.136Z,23.84
2023-05-25T10:14:21.167Z,23.71
2023-05-25T10:15:21.209Z,24.09
2023-05-25T10:16:21.322Z,24.74
2023-05-25T10:17:25.195Z,25.23
2023-05-25T10:18:21.297Z,25.44
2023-05-25T10:19:21.338Z,26.03
2023-05-25T10:20:21.460Z,25.52
2023-05-25T10:21:21.412Z,24.52
2023-05-25T10:22:21.448Z,24.30
2023-05-25T10:23:21.486Z,24.33
2023-05-25T10:24:21.509Z,24.92
2023-05-25T10:25:21.548Z,25.20
2023-05-25T10:26:21.615Z,25.41
2023-05-25T10:27:26.927Z,25.60
2023-05-25T10:28:21.652Z,25.64
2023-05-25T10:29:21.682Z,25.19
2023-05-25T10:30:21.722Z,25.20
2023-05-25T10:31:21.775Z,24.82
2023-05-25T10:32:21.880Z,24.52
2023-05-25T10:33:21.817Z,24.14
2023-05-25T10:34:21.851Z,24.45
2023-05-25T10:35:21.899Z,24.93
2023-05-25T10:36:22.034Z,25.27
2023-05-25T10:37:21.953Z,25.49
2023-05-25T10:38:21.986Z,24.58
2023-05-25T10:41:22.107Z,23.01
2023-05-25T10:42:22.534Z,22.29
2023-05-25T10:43:22.176Z,21.82
2023-05-25T10:48:18.186Z,23.52
2023-05-25T10:49:18.219Z,24.15
2023-05-25T10:50:18.254Z,24.56
2023-05-25T10:51:18.304Z,24.33
2023-05-25T10:52:18.341Z,23.71
2023-05-25T10:53:18.351Z,23.28
2023-05-25T10:54:18.384Z,23.10
2023-05-25T10:55:18.426Z,22.67
2023-05-25T10:56:18.453Z,22.42
2023-05-25T10:57:18.488Z,22.64
2023-05-25T10:58:18.530Z,23.19
2023-05-25T10:59:18.556Z,23.44
2023-05-25T11:00:18.603Z,23.63
2023-05-25T11:01:18.713Z,23.67
2023-05-25T11:02:18.668Z,24.11
2023-05-25T11:03:18.695Z,24.40
2023-05-25T11:04:18.791Z,24.22
2023-05-25T11:05:18.751Z,23.16
2023-05-25T11:06:21.659Z,22.64
2023-05-25T11:07:18.814Z,22.61
2023-05-25T11:08:18.882Z,22.59
2023-05-25T11:09:18.884Z,22.81
2023-05-25T11:10:19.143Z,22.33
2023-05-25T11:11:18.966Z,22.45
2023-05-25T11:12:19.301Z,22.22
2023-05-25T11:14:21.631Z,22.08
2023-05-25T11:15:21.670Z,21.90
2023-05-25T11:16:21.732Z,21.67
2023-05-25T11:17:21.903Z,22.07
2023-05-25T11:18:21.750Z,22.22
2023-05-25T11:19:21.779Z,22.12
2023-05-25T11:22:52.713Z,21.51
2023-05-25T11:23:52.773Z,21.52
2023-05-25T11:24:52.772Z,21.37
2023-05-25T11:25:52.805Z,21.55
2023-05-25T11:26:52.838Z,21.61
2023-05-25T11:27:52.875Z,21.78
2023-05-25T11:28:52.902Z,21.71
2023-05-25T11:29:52.935Z,21.78
2023-05-25T11:30:53.021Z,21.77
2023-05-25T11:31:53.001Z,21.15
2023-05-25T11:32:53.085Z,21.46
2023-05-25T11:33:53.065Z,21.25
2023-05-25T11:34:53.093Z,21.38
2023-05-25T11:35:53.129Z,21.30
2023-05-25T11:36:53.158Z,21.40
2023-05-25T11:37:53.201Z,21.49
2023-05-25T11:39:04.651Z,21.58
2023-05-25T11:39:53.460Z,21.49
2023-05-25T11:40:53.288Z,21.34
2023-05-25T11:41:53.326Z,20.94
2023-05-25T11:42:53.350Z,21.04
2023-05-25T11:43:53.393Z,21.11
2023-05-25T11:44:53.416Z,21.12
2023-05-25T11:45:53.447Z,20.96
2023-05-25T11:46:53.512Z,21.08
2023-05-25T11:47:53.535Z,21.12
2023-05-25T11:48:53.537Z,21.16
2023-05-25T11:49:53.574Z,21.19
2023-05-25T11:50:53.605Z,21.11
2023-05-25T11:51:53.656Z,21.18
2023-05-25T11:52:53.670Z,21.19
2023-05-25T11:53:53.704Z,21.12
2023-05-25T11:54:53.734Z,21.04
2023-05-25T11:55:57.845Z,20.86
2023-05-25T11:56:53.793Z,20.64
2023-05-25T11:57:53.824Z,20.63
2023-05-25T11:58:53.855Z,20.68
2023-05-25T11:59:53.895Z,20.56
2023-05-25T12:00:53.917Z,20.57
2023-05-25T12:01:53.948Z,20.63
2023-05-25T12:02:54.028Z,20.60
2023-05-25T12:03:54.119Z,20.44
2023-05-25T12:04:54.152Z,20.22
2023-05-25T12:05:54.075Z,20.16
2023-05-25T12:06:54.141Z,20.15
2023-05-25T12:07:54.140Z,20.05
2023-05-25T12:08:54.175Z,19.86
2023-05-25T12:09:54.203Z,19.75
2023-05-25T12:10:54.242Z,19.80
2023-05-25T12:11:54.296Z,20.02
2023-05-25T12:12:54.293Z,20.04
2023-05-25T12:13:54.325Z,19.85
2023-05-25T12:14:54.361Z,19.70
2023-05-25T12:15:54.385Z,19.90
2023-05-25T12:16:54.426Z,20.02
2023-05-25T12:17:54.700Z,19.98
2023-05-25T12:18:54.479Z,20.15
2023-05-25T12:19:54.579Z,19.89
2023-05-25T12:20:54.629Z,19.64
2023-05-25T12:21:54.572Z,19.50
2023-05-25T12:22:54.609Z,19.55
2023-05-25T12:23:54.632Z,19.67
2023-05-25T12:24:54.673Z,19.63
2023-05-25T12:25:54.913Z,19.83
2023-05-25T12:26:54.730Z,19.74
2023-05-25T12:27:54.781Z,19.80
2023-05-25T12:28:54.785Z,19.87
2023-05-25T12:29:54.817Z,19.72
2023-05-25T12:30:54.905Z,19.57
2023-05-25T12:31:54.880Z,19.60
2023-05-25T12:32:54.956Z,19.68
2023-05-25T12:33:54.943Z,19.89
2023-05-25T12:34:54.972Z,20.08
2023-05-25T12:35:55.004Z,20.15
2023-05-25T12:36:55.028Z,20.11
2023-05-25T12:37:55.068Z,20.19
2023-05-25T12:38:55.098Z,19.97
2023-05-25T12:39:55.758Z,19.82
2023-05-25T12:40:55.154Z,19.72
2023-05-25T12:41:55.369Z,19.60
2023-05-25T12:42:55.218Z,19.64
2023-05-25T12:43:55.323Z,19.72
2023-05-25T12:44:55.279Z,19.64
2023-05-25T12:45:55.331Z,19.70
2023-05-25T12:46:55.386Z,19.72
2023-05-25T12:47:55.419Z,19.70
2023-05-25T12:48:55.401Z,19.71
2023-05-25T12:49:55.431Z,19.71
2023-05-25T12:50:55.467Z,19.74
2023-05-25T12:51:55.496Z,19.47
2023-05-25T12:52:55.523Z,19.38
2023-05-25T12:53:55.563Z,19.45
2023-05-25T12:54:55.587Z,19.56
2023-05-25T12:55:55.619Z,19.57
2023-05-25T12:56:55.646Z,19.57
2023-05-25T12:57:55.703Z,19.34
2023-05-25T12:58:55.708Z,19.19
2023-05-25T12:59:55.766Z,19.27
2023-05-25T13:00:55.769Z,19.37
2023-05-25T13:01:55.822Z,19.52
2023-05-25T13:02:55.906Z,19.65
2023-05-25T13:06:21.746Z,19.17
2023-05-25T13:07:21.782Z,19.09
2023-05-25T13:08:21.811Z,19.09
2023-05-25T13:09:21.850Z,18.99
2023-05-25T13:10:21.901Z,18.84
2023-05-25T13:11:21.898Z,18.69
2023-05-25T13:12:24.555Z,18.74
2023-05-25T13:13:21.959Z,18.60
2023-05-25T13:14:21.996Z,18.90
2023-05-25T13:15:22.094Z,18.96
2023-05-25T13:16:22.101Z,19.10
2023-05-25T13:17:22.091Z,19.25
2023-05-25T13:18:22.112Z,19.35
2023-05-25T13:19:22.145Z,19.27
2023-05-25T13:20:22.205Z,19.13
2023-05-25T13:21:22.226Z,18.86
2023-05-25T13:22:22.226Z,19.00
2023-05-25T13:23:22.262Z,19.15
2023-05-25T13:24:22.289Z,19.13
2023-05-25T13:25:22.622Z,19.32
2023-05-25T13:26:22.350Z,19.13
2023-05-25T13:27:22.391Z,19.23
2023-05-25T13:28:22.451Z,19.23
2023-05-25T13:29:22.447Z,19.10
2023-05-25T13:30:22.519Z,19.20
2023-05-25T13:31:22.551Z,19.24
2023-05-25T13:32:22.575Z,19.23
2023-05-25T13:33:22.565Z,19.20
2023-05-25T13:34:22.606Z,19.12
2023-05-25T13:35:22.628Z,19.19
2023-05-25T13:36:22.674Z,19.30
2023-05-25T13:37:22.685Z,19.31
2023-05-25T13:38:22.730Z,19.25
2023-05-25T13:39:22.746Z,19.35
2023-05-25T13:40:22.779Z,19.32
2023-05-25T13:41:22.809Z,19.42
2023-05-25T13:42:22.835Z,19.42
2023-05-25T13:43:22.875Z,19.32
2023-05-25T13:44:22.905Z,19.30
2023-05-25T13:45:22.933Z,19.31
2023-05-25T13:46:34.005Z,19.28
2023-05-25T13:47:23.120Z,19.19
2023-05-25T13:48:23.059Z,19.20
2023-05-25T13:49:24.023Z,19.25
2023-05-25T13:50:23.085Z,18.96
2023-05-25T13:51:23.109Z,18.91
2023-05-25T13:52:23.142Z,18.96
2023-05-25T13:53:23.174Z,18.94
2023-05-25T13:54:23.232Z,18.89
2023-05-25T13:55:23.240Z,19.05
2023-05-25T13:56:23.323Z,19.05
2023-05-25T13:57:23.293Z,19.17
2023-05-25T13:58:23.326Z,19.27
2023-05-25T13:59:23.356Z,19.25
2023-05-25T14:00:23.385Z,19.35
2023-05-25T14:01:23.449Z,19.46
2023-05-25T14:02:23.486Z,19.53
2023-05-25T14:03:23.613Z,19.49
2023-05-25T14:04:23.535Z,19.63
2023-05-25T14:05:23.541Z,19.49
2023-05-25T14:06:23.566Z,19.40
2023-05-25T14:07:23.600Z,19.38
2023-05-25T14:08:23.628Z,19.38
2023-05-25T14:09:23.674Z,19.38
2023-05-25T14:10:23.690Z,19.25
2023-05-25T14:11:28.511Z,19.28
2023-05-25T14:12:23.745Z,19.46
2023-05-25T14:13:23.780Z,19.52
2023-05-25T14:14:31.528Z,19.64
2023-05-25T14:15:23.840Z,19.64
2023-05-25T14:16:23.929Z,19.67
2023-05-25T14:17:23.938Z,19.60
2023-05-25T14:18:23.967Z,19.57
2023-05-25T14:19:23.984Z,19.28
2023-05-25T14:20:24.045Z,19.35
2023-05-25T14:21:24.021Z,19.32
2023-05-25T14:22:24.054Z,19.19
2023-05-25T14:23:24.082Z,19.19
2023-05-25T14:24:24.116Z,19.23
2023-05-25T14:25:24.139Z,19.10
2023-05-25T14:26:24.173Z,19.17
2023-05-25T14:27:24.205Z,19.20
2023-05-25T14:28:24.232Z,19.35
2023-05-25T14:29:24.272Z,19.42
2023-05-25T14:30:24.311Z,19.53
2023-05-25T14:31:24.400Z,19.56
2023-05-25T14:32:24.377Z,19.60
2023-05-25T14:33:24.386Z,19.60
2023-05-25T14:34:24.415Z,19.57
2023-05-25T14:35:24.463Z,19.64
2023-05-25T14:36:24.473Z,19.60
2023-05-25T14:37:24.511Z,19.53
2023-05-25T14:38:24.539Z,19.50
2023-05-25T14:39:24.574Z,19.47
2023-05-25T14:40:24.597Z,19.30
2023-05-25T14:41:24.629Z,19.17
2023-05-25T14:42:24.656Z,19.02
2023-05-25T14:43:24.689Z,18.96
2023-05-25T14:44:24.722Z,19.00
2023-05-25T14:45:24.752Z,19.17
2023-05-25T14:46:24.832Z,19.27
2023-05-25T14:47:24.887Z,19.34
2023-05-25T14:48:24.864Z,19.31
2023-05-25T14:49:24.879Z,19.25
2023-05-25T14:50:24.900Z,19.16
2023-05-25T14:51:24.951Z,19.20
2023-05-25T14:52:25.032Z,19.25
2023-05-25T14:53:24.991Z,19.34
2023-05-25T14:54:25.029Z,19.20
2023-05-25T14:55:25.057Z,18.93
2023-05-25T14:56:25.084Z,18.93
2023-05-25T14:57:25.109Z,18.84
2023-05-25T14:58:25.141Z,18.91
2023-05-25T14:59:25.177Z,18.87
2023-05-25T15:00:25.204Z,18.87
2023-05-25T15:01:25.766Z,18.96
2023-05-25T15:02:25.371Z,19.00
2023-05-25T15:03:25.423Z,19.16
2023-05-25T15:04:25.337Z,19.16
2023-05-25T15:05:25.365Z,19.16
2023-05-25T15:07:08.004Z,19.28
2023-05-25T15:08:07.985Z,19.46
2023-05-25T15:09:08.015Z,19.43
2023-05-25T15:10:08.041Z,19.52
2023-05-25T15:11:08.051Z,19.52
2023-05-25T15:12:08.113Z,19.43
2023-05-25T15:13:08.117Z,19.55
2023-05-25T15:14:08.150Z,19.46
2023-05-25T15:15:08.171Z,19.40
2023-05-25T15:16:08.254Z,19.45
2023-05-25T15:17:55.820Z,19.40
2023-05-25T15:18:55.834Z,19.43
2023-05-25T15:19:55.874Z,19.43
2023-05-25T15:20:55.894Z,19.46
2023-05-25T15:21:55.927Z,19.46
2023-05-25T15:22:55.981Z,19.49
2023-05-25T15:23:55.981Z,19.40
2023-05-25T15:24:56.025Z,19.43
2023-05-25T15:25:56.046Z,19.24
2023-05-25T15:26:56.080Z,19.31
2023-05-25T15:27:56.107Z,19.00